North Pole, AK (99705)

9:08 AM AKDT on July 01, 2015 (GMT -0800)
AKDOT | | Change Station
CLOSE
Current Station
Personal Weather Station
Location: North Pole, AK
Elevation: 494 ft
Nearby Weather Stations

Elev 494 ft 64.77 °N, 147.35 °W | Updated 45 minutes ago

Overcast
Overcast
54 °F
Feels Like 54 °F
N
1
Wind Variable Wind from SE
Gusts 3.0 mph

Today
High -- | Low -- °F
--% Chance of Precip.
Yesterday
High -- | Low -- °F
Precip. -- in
3:11 AM 0:33 AM
Full, 100% visible
Pressure 30.05 in
Visibility 7.0 miles
Clouds Few 800 ft
Overcast 5000 ft
Dew Point 54 °F
Humidity 100%
Rainfall in
Snow Depth Not available.
UV 1 out of 12
Pollen Not available.
Air Quality Not available.
Flu Activity Not available.
METAR PAFB 011655Z 19004KT 7SM FEW008 OVC050 13/11 A3004 RMK SLP175

More Conditions Fewer Conditions

Pressure 30.05 in
Visibility 7.0 miles
Clouds Few 800 ft
Overcast 5000 ft
Dew Point 54 °F
Humidity 100%
Rainfall in
Snow Depth Not available.
UV 1 out of 12
Pollen Not available.
Air Quality Not available.
Flu Activity Not available.
METAR PAFB 011655Z 19004KT 7SM FEW008 OVC050 13/11 A3004 RMK SLP175

More Conditions Fewer Conditions

10-Day Weather Forecast

×

Almanac

Astronomy

Jul. 01, 2015 Rise Set
Actual Time
Civil Twilight
Nautical Twilight
Astronomical Twilight
Moon
Length of Visible Light
Length of Day
Tomorrow will be .
, % of the Moon is Illuminated

Today's Extremes

State Highs State Lows

Community

WunderPhotos

Upload Photos

1,834,244 photos uploaded!

WunderBlogs® & News

Nearby

Air Quality

  Air Quality AQ Index Pollutant
Not available.

Snow Depth

Station Depth Elevation

Earthquake Activity

City Distance Mag. Time & Date
Minimum magnitude displayed is 2.5.

Coastal Water Temperatures

Place Temperature

Stations

Nearby Weather Stations

Station Location Temp. Windchill Dew Point Humidity Wind Precip. Elev Updated Type